sensor_id;sensor_type;location;lat;lon;timestamp;P1;durP1;ratioP1;P2;durP2;ratioP2
68989;SDS011;56046;47.270;11.368;2022-09-19T00:01:07;5.93;;;1.50;;
68989;SDS011;56046;47.270;11.368;2022-09-19T00:03:32;3.25;;;1.40;;
68989;SDS011;56046;47.270;11.368;2022-09-19T00:05:57;3.37;;;1.30;;
68989;SDS011;56046;47.270;11.368;2022-09-19T00:08:23;4.60;;;1.90;;
68989;SDS011;56046;47.270;11.368;2022-09-19T00:10:48;4.43;;;1.70;;
68989;SDS011;56046;47.270;11.368;2022-09-19T00:13:13;4.20;;;1.80;;
68989;SDS011;56046;47.270;11.368;2022-09-19T00:15:45;3.80;;;1.90;;
68989;SDS011;56046;47.270;11.368;2022-09-19T00:18:11;4.40;;;1.70;;
68989;SDS011;56046;47.270;11.368;2022-09-19T00:20:43;3.47;;;1.70;;
68989;SDS011;56046;47.270;11.368;2022-09-19T00:23:14;3.97;;;1.90;;
68989;SDS011;56046;47.270;11.368;2022-09-19T00:25:59;3.17;;;1.80;;
68989;SDS011;56046;47.270;11.368;2022-09-19T00:28:24;3.13;;;1.50;;
68989;SDS011;56046;47.270;11.368;2022-09-19T00:30:52;4.60;;;1.60;;
68989;SDS011;56046;47.270;11.368;2022-09-19T00:33:18;4.37;;;1.57;;
68989;SDS011;56046;47.270;11.368;2022-09-19T00:35:46;3.50;;;2.00;;
68989;SDS011;56046;47.270;11.368;2022-09-19T00:38:13;3.90;;;1.98;;
68989;SDS011;56046;47.270;11.368;2022-09-19T00:40:38;3.50;;;1.77;;
68989;SDS011;56046;47.270;11.368;2022-09-19T00:43:04;4.33;;;1.77;;
68989;SDS011;56046;47.270;11.368;2022-09-19T00:45:30;4.38;;;1.80;;
68989;SDS011;56046;47.270;11.368;2022-09-19T00:47:55;5.90;;;1.63;;
68989;SDS011;56046;47.270;11.368;2022-09-19T00:50:25;5.83;;;1.60;;
68989;SDS011;56046;47.270;11.368;2022-09-19T00:52:59;2.58;;;1.40;;
68989;SDS011;56046;47.270;11.368;2022-09-19T00:55:25;5.13;;;1.63;;
68989;SDS011;56046;47.270;11.368;2022-09-19T00:57:53;2.80;;;1.33;;
68989;SDS011;56046;47.270;11.368;2022-09-19T01:00:20;2.80;;;1.50;;
68989;SDS011;56046;47.270;11.368;2022-09-19T01:02:46;2.93;;;1.20;;
68989;SDS011;56046;47.270;11.368;2022-09-19T01:05:14;2.88;;;1.20;;
68989;SDS011;56046;47.270;11.368;2022-09-19T01:07:57;2.67;;;1.42;;
68989;SDS011;56046;47.270;11.368;2022-09-19T01:10:35;2.83;;;1.10;;
68989;SDS011;56046;47.270;11.368;2022-09-19T01:13:11;4.40;;;1.40;;
68989;SDS011;56046;47.270;11.368;2022-09-19T01:18:16;2.13;;;1.20;;
68989;SDS011;56046;47.270;11.368;2022-09-19T01:20:56;2.50;;;1.25;;
68989;SDS011;56046;47.270;11.368;2022-09-19T01:28:18;3.27;;;1.20;;
68989;SDS011;56046;47.270;11.368;2022-09-19T01:36:32;2.33;;;1.10;;
68989;SDS011;56046;47.270;11.368;2022-09-19T01:38:58;3.00;;;1.23;;
68989;SDS011;56046;47.270;11.368;2022-09-19T01:41:24;2.40;;;1.40;;
68989;SDS011;56046;47.270;11.368;2022-09-19T01:43:50;3.63;;;1.57;;
68989;SDS011;56046;47.270;11.368;2022-09-19T01:46:26;3.40;;;1.60;;
68989;SDS011;56046;47.270;11.368;2022-09-19T01:49:39;4.53;;;1.40;;
68989;SDS011;56046;47.270;11.368;2022-09-19T01:52:08;3.78;;;1.60;;
68989;SDS011;56046;47.270;11.368;2022-09-19T01:54:42;4.93;;;2.58;;
68989;SDS011;56046;47.270;11.368;2022-09-19T01:59:43;4.13;;;2.00;;
68989;SDS011;56046;47.270;11.368;2022-09-19T02:02:19;4.55;;;2.10;;
68989;SDS011;56046;47.270;11.368;2022-09-19T02:04:58;4.05;;;2.13;;
68989;SDS011;56046;47.270;11.368;2022-09-19T02:07:37;4.93;;;2.38;;
68989;SDS011;56046;47.270;11.368;2022-09-19T02:10:08;5.40;;;2.30;;
68989;SDS011;56046;47.270;11.368;2022-09-19T02:12:35;3.70;;;1.80;;
68989;SDS011;56046;47.270;11.368;2022-09-19T02:15:01;4.82;;;2.40;;
68989;SDS011;56046;47.270;11.368;2022-09-19T02:17:37;4.32;;;2.55;;
68989;SDS011;56046;47.270;11.368;2022-09-19T02:20:13;4.55;;;1.88;;
68989;SDS011;56046;47.270;11.368;2022-09-19T02:22:42;4.68;;;2.25;;
68989;SDS011;56046;47.270;11.368;2022-09-19T02:25:12;4.00;;;1.60;;
68989;SDS011;56046;47.270;11.368;2022-09-19T02:27:42;3.38;;;1.80;;
68989;SDS011;56046;47.270;11.368;2022-09-19T02:30:09;2.78;;;1.48;;
68989;SDS011;56046;47.270;11.368;2022-09-19T02:32:38;3.33;;;1.42;;
68989;SDS011;56046;47.270;11.368;2022-09-19T02:35:12;2.97;;;1.47;;
68989;SDS011;56046;47.270;11.368;2022-09-19T02:37:48;3.63;;;1.80;;
68989;SDS011;56046;47.270;11.368;2022-09-19T02:40:22;3.53;;;1.40;;
68989;SDS011;56046;47.270;11.368;2022-09-19T02:45:32;3.25;;;1.33;;
68989;SDS011;56046;47.270;11.368;2022-09-19T02:50:41;2.75;;;0.90;;
68989;SDS011;56046;47.270;11.368;2022-09-19T02:53:11;2.22;;;0.80;;
68989;SDS011;56046;47.270;11.368;2022-09-19T02:55:39;1.35;;;1.05;;
68989;SDS011;56046;47.270;11.368;2022-09-19T02:58:09;2.72;;;1.30;;
68989;SDS011;56046;47.270;11.368;2022-09-19T03:00:36;3.10;;;0.90;;
68989;SDS011;56046;47.270;11.368;2022-09-19T03:03:13;3.05;;;1.50;;
68989;SDS011;56046;47.270;11.368;2022-09-19T03:05:59;2.88;;;1.48;;
68989;SDS011;56046;47.270;11.368;2022-09-19T03:08:25;1.80;;;0.80;;
68989;SDS011;56046;47.270;11.368;2022-09-19T03:10:51;1.97;;;1.00;;
68989;SDS011;56046;47.270;11.368;2022-09-19T03:13:18;3.38;;;1.20;;
68989;SDS011;56046;47.270;11.368;2022-09-19T03:15:50;2.40;;;1.00;;
68989;SDS011;56046;47.270;11.368;2022-09-19T03:18:21;1.13;;;0.80;;
68989;SDS011;56046;47.270;11.368;2022-09-19T03:20:54;2.22;;;0.70;;
68989;SDS011;56046;47.270;11.368;2022-09-19T03:23:25;1.88;;;0.73;;
68989;SDS011;56046;47.270;11.368;2022-09-19T03:25:52;1.33;;;0.70;;
68989;SDS011;56046;47.270;11.368;2022-09-19T03:28:17;2.55;;;0.90;;
68989;SDS011;56046;47.270;11.368;2022-09-19T03:30:45;0.90;;;0.70;;
68989;SDS011;56046;47.270;11.368;2022-09-19T03:33:10;1.60;;;0.90;;
68989;SDS011;56046;47.270;11.368;2022-09-19T03:35:37;3.40;;;1.25;;
68989;SDS011;56046;47.270;11.368;2022-09-19T03:38:03;1.58;;;0.82;;
68989;SDS011;56046;47.270;11.368;2022-09-19T03:40:28;2.27;;;1.00;;
68989;SDS011;56046;47.270;11.368;2022-09-19T03:42:53;1.33;;;0.70;;
68989;SDS011;56046;47.270;11.368;2022-09-19T03:45:19;1.43;;;0.90;;
68989;SDS011;56046;47.270;11.368;2022-09-19T03:47:44;1.63;;;0.93;;
68989;SDS011;56046;47.270;11.368;2022-09-19T03:50:09;1.57;;;0.77;;
68989;SDS011;56046;47.270;11.368;2022-09-19T03:52:34;1.53;;;0.93;;
68989;SDS011;56046;47.270;11.368;2022-09-19T03:55:00;1.03;;;0.80;;
68989;SDS011;56046;47.270;11.368;2022-09-19T03:57:25;0.83;;;0.63;;
68989;SDS011;56046;47.270;11.368;2022-09-19T03:59:51;1.10;;;0.70;;
68989;SDS011;56046;47.270;11.368;2022-09-19T04:02:16;1.10;;;0.70;;
68989;SDS011;56046;47.270;11.368;2022-09-19T04:04:41;1.83;;;0.80;;
68989;SDS011;56046;47.270;11.368;2022-09-19T04:07:06;2.60;;;0.70;;
68989;SDS011;56046;47.270;11.368;2022-09-19T04:09:32;0.80;;;0.60;;
68989;SDS011;56046;47.270;11.368;2022-09-19T04:11:57;2.73;;;0.70;;
68989;SDS011;56046;47.270;11.368;2022-09-19T04:14:24;1.52;;;0.80;;
68989;SDS011;56046;47.270;11.368;2022-09-19T04:16:50;1.43;;;0.63;;
68989;SDS011;56046;47.270;11.368;2022-09-19T04:19:16;3.60;;;0.80;;
68989;SDS011;56046;47.270;11.368;2022-09-19T04:21:41;1.93;;;0.90;;
68989;SDS011;56046;47.270;11.368;2022-09-19T04:24:10;1.40;;;0.80;;
68989;SDS011;56046;47.270;11.368;2022-09-19T04:26:35;1.83;;;1.00;;
68989;SDS011;56046;47.270;11.368;2022-09-19T04:29:01;1.30;;;0.90;;
68989;SDS011;56046;47.270;11.368;2022-09-19T04:31:28;2.22;;;1.10;;
68989;SDS011;56046;47.270;11.368;2022-09-19T04:33:53;1.10;;;0.70;;
68989;SDS011;56046;47.270;11.368;2022-09-19T04:36:19;2.57;;;0.73;;
68989;SDS011;56046;47.270;11.368;2022-09-19T04:38:45;1.13;;;0.70;;
68989;SDS011;56046;47.270;11.368;2022-09-19T04:41:12;2.17;;;0.80;;
68989;SDS011;56046;47.270;11.368;2022-09-19T04:43:37;1.77;;;1.00;;
68989;SDS011;56046;47.270;11.368;2022-09-19T04:46:03;2.90;;;1.00;;
68989;SDS011;56046;47.270;11.368;2022-09-19T04:48:29;1.75;;;1.10;;
68989;SDS011;56046;47.270;11.368;2022-09-19T04:50:55;3.30;;;0.80;;
68989;SDS011;56046;47.270;11.368;2022-09-19T04:53:22;1.65;;;0.90;;
68989;SDS011;56046;47.270;11.368;2022-09-19T04:55:49;1.80;;;0.60;;
68989;SDS011;56046;47.270;11.368;2022-09-19T04:58:14;0.95;;;0.60;;
68989;SDS011;56046;47.270;11.368;2022-09-19T05:00:40;1.48;;;0.80;;
68989;SDS011;56046;47.270;11.368;2022-09-19T05:03:06;1.33;;;0.60;;
68989;SDS011;56046;47.270;11.368;2022-09-19T05:05:33;1.75;;;0.80;;
68989;SDS011;56046;47.270;11.368;2022-09-19T05:07:59;1.85;;;0.73;;
68989;SDS011;56046;47.270;11.368;2022-09-19T05:10:24;2.50;;;1.07;;
68989;SDS011;56046;47.270;11.368;2022-09-19T05:12:51;1.50;;;0.90;;
68989;SDS011;56046;47.270;11.368;2022-09-19T05:15:16;7.23;;;3.03;;
68989;SDS011;56046;47.270;11.368;2022-09-19T05:17:41;1.37;;;0.80;;
68989;SDS011;56046;47.270;11.368;2022-09-19T05:20:06;2.77;;;0.83;;
68989;SDS011;56046;47.270;11.368;2022-09-19T05:22:32;2.97;;;0.80;;
68989;SDS011;56046;47.270;11.368;2022-09-19T05:24:57;1.53;;;0.50;;
68989;SDS011;56046;47.270;11.368;2022-09-19T05:27:30;2.67;;;0.70;;
68989;SDS011;56046;47.270;11.368;2022-09-19T05:29:56;1.83;;;0.80;;
68989;SDS011;56046;47.270;11.368;2022-09-19T05:32:23;1.45;;;0.93;;
68989;SDS011;56046;47.270;11.368;2022-09-19T05:34:49;1.10;;;0.80;;
68989;SDS011;56046;47.270;11.368;2022-09-19T05:37:14;2.77;;;0.90;;
68989;SDS011;56046;47.270;11.368;2022-09-19T05:39:39;2.03;;;0.93;;
68989;SDS011;56046;47.270;11.368;2022-09-19T05:42:05;1.90;;;1.30;;
68989;SDS011;56046;47.270;11.368;2022-09-19T05:44:30;1.50;;;0.90;;
68989;SDS011;56046;47.270;11.368;2022-09-19T05:46:55;2.40;;;1.10;;
68989;SDS011;56046;47.270;11.368;2022-09-19T05:49:22;2.17;;;1.10;;
68989;SDS011;56046;47.270;11.368;2022-09-19T05:51:47;1.93;;;1.13;;
68989;SDS011;56046;47.270;11.368;2022-09-19T05:54:12;1.23;;;1.00;;
68989;SDS011;56046;47.270;11.368;2022-09-19T05:56:37;1.73;;;1.00;;
68989;SDS011;56046;47.270;11.368;2022-09-19T05:59:03;3.37;;;0.90;;
68989;SDS011;56046;47.270;11.368;2022-09-19T06:01:28;3.43;;;1.13;;
68989;SDS011;56046;47.270;11.368;2022-09-19T06:03:53;1.50;;;1.00;;
68989;SDS011;56046;47.270;11.368;2022-09-19T06:06:19;1.50;;;0.80;;
68989;SDS011;56046;47.270;11.368;2022-09-19T06:08:44;1.10;;;0.80;;
68989;SDS011;56046;47.270;11.368;2022-09-19T06:11:10;3.92;;;0.80;;
68989;SDS011;56046;47.270;11.368;2022-09-19T06:13:36;2.70;;;0.80;;
68989;SDS011;56046;47.270;11.368;2022-09-19T06:16:19;0.60;;;0.60;;
68989;SDS011;56046;47.270;11.368;2022-09-19T06:18:45;1.33;;;0.77;;
68989;SDS011;56046;47.270;11.368;2022-09-19T06:21:10;0.60;;;0.55;;
68989;SDS011;56046;47.270;11.368;2022-09-19T06:23:37;3.50;;;1.00;;
68989;SDS011;56046;47.270;11.368;2022-09-19T06:26:02;1.33;;;0.90;;
68989;SDS011;56046;47.270;11.368;2022-09-19T06:28:28;1.30;;;0.90;;
68989;SDS011;56046;47.270;11.368;2022-09-19T06:30:54;1.80;;;0.90;;
68989;SDS011;56046;47.270;11.368;2022-09-19T06:33:19;1.53;;;0.90;;
68989;SDS011;56046;47.270;11.368;2022-09-19T06:35:44;1.50;;;0.80;;
68989;SDS011;56046;47.270;11.368;2022-09-19T06:38:09;3.37;;;1.57;;
68989;SDS011;56046;47.270;11.368;2022-09-19T06:40:35;2.53;;;1.50;;
68989;SDS011;56046;47.270;11.368;2022-09-19T06:43:03;3.65;;;1.58;;
68989;SDS011;56046;47.270;11.368;2022-09-19T06:45:29;1.77;;;1.00;;
68989;SDS011;56046;47.270;11.368;2022-09-19T06:47:55;1.90;;;0.90;;
68989;SDS011;56046;47.270;11.368;2022-09-19T06:50:20;1.40;;;0.77;;
68989;SDS011;56046;47.270;11.368;2022-09-19T06:52:46;4.72;;;1.52;;
68989;SDS011;56046;47.270;11.368;2022-09-19T06:55:11;2.93;;;1.30;;
68989;SDS011;56046;47.270;11.368;2022-09-19T06:57:37;5.93;;;4.43;;
68989;SDS011;56046;47.270;11.368;2022-09-19T07:00:02;10.87;;;6.60;;
68989;SDS011;56046;47.270;11.368;2022-09-19T07:02:27;6.43;;;3.87;;
68989;SDS011;56046;47.270;11.368;2022-09-19T07:04:53;5.43;;;2.72;;
68989;SDS011;56046;47.270;11.368;2022-09-19T07:07:18;3.43;;;1.73;;
68989;SDS011;56046;47.270;11.368;2022-09-19T07:09:43;1.77;;;1.23;;
68989;SDS011;56046;47.270;11.368;2022-09-19T07:12:09;3.00;;;1.20;;
68989;SDS011;56046;47.270;11.368;2022-09-19T07:14:34;5.00;;;2.40;;
68989;SDS011;56046;47.270;11.368;2022-09-19T07:17:00;3.87;;;1.60;;
68989;SDS011;56046;47.270;11.368;2022-09-19T07:19:25;1.83;;;1.10;;
68989;SDS011;56046;47.270;11.368;2022-09-19T07:21:53;2.70;;;1.53;;
68989;SDS011;56046;47.270;11.368;2022-09-19T07:24:19;3.30;;;1.80;;
68989;SDS011;56046;47.270;11.368;2022-09-19T07:26:44;5.03;;;2.23;;
68989;SDS011;56046;47.270;11.368;2022-09-19T07:29:10;6.87;;;3.10;;
68989;SDS011;56046;47.270;11.368;2022-09-19T07:31:35;7.87;;;3.57;;
68989;SDS011;56046;47.270;11.368;2022-09-19T07:34:00;2.83;;;1.70;;
68989;SDS011;56046;47.270;11.368;2022-09-19T07:36:26;4.60;;;2.10;;
68989;SDS011;56046;47.270;11.368;2022-09-19T07:38:52;5.35;;;2.25;;
68989;SDS011;56046;47.270;11.368;2022-09-19T07:41:17;5.32;;;1.55;;
68989;SDS011;56046;47.270;11.368;2022-09-19T07:43:43;2.60;;;1.70;;
68989;SDS011;56046;47.270;11.368;2022-09-19T07:46:09;4.90;;;2.03;;
68989;SDS011;56046;47.270;11.368;2022-09-19T07:48:37;4.37;;;2.07;;
68989;SDS011;56046;47.270;11.368;2022-09-19T07:51:02;3.90;;;2.30;;
68989;SDS011;56046;47.270;11.368;2022-09-19T07:53:28;7.22;;;2.95;;
68989;SDS011;56046;47.270;11.368;2022-09-19T07:55:54;8.37;;;4.07;;
68989;SDS011;56046;47.270;11.368;2022-09-19T07:58:20;6.65;;;3.55;;
68989;SDS011;56046;47.270;11.368;2022-09-19T08:00:46;7.15;;;3.08;;
68989;SDS011;56046;47.270;11.368;2022-09-19T08:03:12;5.97;;;3.30;;
68989;SDS011;56046;47.270;11.368;2022-09-19T08:05:38;5.70;;;2.28;;
68989;SDS011;56046;47.270;11.368;2022-09-19T08:08:05;4.60;;;2.47;;
68989;SDS011;56046;47.270;11.368;2022-09-19T08:10:30;4.50;;;2.15;;
68989;SDS011;56046;47.270;11.368;2022-09-19T08:13:00;4.35;;;2.05;;
68989;SDS011;56046;47.270;11.368;2022-09-19T08:15:25;4.50;;;2.30;;
68989;SDS011;56046;47.270;11.368;2022-09-19T08:17:57;5.53;;;2.80;;
68989;SDS011;56046;47.270;11.368;2022-09-19T08:20:24;6.28;;;3.50;;
68989;SDS011;56046;47.270;11.368;2022-09-19T08:22:49;5.88;;;2.17;;
68989;SDS011;56046;47.270;11.368;2022-09-19T08:25:18;3.23;;;1.90;;
68989;SDS011;56046;47.270;11.368;2022-09-19T08:27:45;2.75;;;1.70;;
68989;SDS011;56046;47.270;11.368;2022-09-19T08:30:10;3.37;;;1.60;;
68989;SDS011;56046;47.270;11.368;2022-09-19T08:32:35;3.10;;;1.70;;
68989;SDS011;56046;47.270;11.368;2022-09-19T08:35:01;3.35;;;1.88;;
68989;SDS011;56046;47.270;11.368;2022-09-19T08:37:26;3.63;;;1.70;;
68989;SDS011;56046;47.270;11.368;2022-09-19T08:39:51;2.40;;;1.60;;
68989;SDS011;56046;47.270;11.368;2022-09-19T08:42:43;4.43;;;1.80;;
68989;SDS011;56046;47.270;11.368;2022-09-19T08:45:22;3.67;;;1.80;;
68989;SDS011;56046;47.270;11.368;2022-09-19T08:47:51;3.88;;;1.80;;
68989;SDS011;56046;47.270;11.368;2022-09-19T08:50:21;3.40;;;1.73;;
68989;SDS011;56046;47.270;11.368;2022-09-19T08:52:50;3.53;;;1.60;;
68989;SDS011;56046;47.270;11.368;2022-09-19T08:55:20;4.55;;;1.65;;
68989;SDS011;56046;47.270;11.368;2022-09-19T08:57:59;4.05;;;1.98;;
68989;SDS011;56046;47.270;11.368;2022-09-19T09:00:27;5.15;;;1.20;;
68989;SDS011;56046;47.270;11.368;2022-09-19T09:02:55;5.40;;;2.10;;
68989;SDS011;56046;47.270;11.368;2022-09-19T09:13:08;4.05;;;1.63;;
68989;SDS011;56046;47.270;11.368;2022-09-19T09:15:45;2.13;;;1.38;;
68989;SDS011;56046;47.270;11.368;2022-09-19T09:23:24;1.40;;;1.00;;
68989;SDS011;56046;47.270;11.368;2022-09-19T09:25:53;1.48;;;1.00;;
68989;SDS011;56046;47.270;11.368;2022-09-19T09:31:11;1.67;;;1.20;;
68989;SDS011;56046;47.270;11.368;2022-09-19T09:33:40;1.85;;;1.15;;
68989;SDS011;56046;47.270;11.368;2022-09-19T09:36:11;1.90;;;1.20;;
68989;SDS011;56046;47.270;11.368;2022-09-19T09:38:44;1.98;;;1.27;;
68989;SDS011;56046;47.270;11.368;2022-09-19T09:41:16;2.42;;;0.90;;
68989;SDS011;56046;47.270;11.368;2022-09-19T09:46:53;1.40;;;1.10;;
68989;SDS011;56046;47.270;11.368;2022-09-19T09:49:20;1.80;;;1.23;;
68989;SDS011;56046;47.270;11.368;2022-09-19T10:05:32;1.70;;;1.00;;
68989;SDS011;56046;47.270;11.368;2022-09-19T10:08:21;2.15;;;1.17;;
68989;SDS011;56046;47.270;11.368;2022-09-19T10:13:32;2.65;;;1.13;;
68989;SDS011;56046;47.270;11.368;2022-09-19T10:16:00;2.08;;;1.20;;
68989;SDS011;56046;47.270;11.368;2022-09-19T10:18:33;3.03;;;1.30;;
68989;SDS011;56046;47.270;11.368;2022-09-19T10:21:02;1.90;;;1.00;;
68989;SDS011;56046;47.270;11.368;2022-09-19T10:23:31;2.07;;;1.10;;
68989;SDS011;56046;47.270;11.368;2022-09-19T10:25:59;1.95;;;1.00;;
68989;SDS011;56046;47.270;11.368;2022-09-19T10:28:36;1.88;;;0.90;;
68989;SDS011;56046;47.270;11.368;2022-09-19T10:31:22;2.47;;;1.15;;
68989;SDS011;56046;47.270;11.368;2022-09-19T10:33:48;1.38;;;0.95;;
68989;SDS011;56046;47.270;11.368;2022-09-19T10:36:17;1.67;;;0.97;;
68989;SDS011;56046;47.270;11.368;2022-09-19T10:38:48;1.30;;;1.08;;
68989;SDS011;56046;47.270;11.368;2022-09-19T10:41:14;2.00;;;1.25;;
68989;SDS011;56046;47.270;11.368;2022-09-19T10:43:41;1.83;;;1.13;;
68989;SDS011;56046;47.270;11.368;2022-09-19T10:46:14;1.50;;;1.02;;
68989;SDS011;56046;47.270;11.368;2022-09-19T10:48:40;3.13;;;0.93;;
68989;SDS011;56046;47.270;11.368;2022-09-19T10:51:06;2.07;;;1.13;;
68989;SDS011;56046;47.270;11.368;2022-09-19T10:53:33;2.25;;;1.17;;
68989;SDS011;56046;47.270;11.368;2022-09-19T10:56:01;1.70;;;1.10;;
68989;SDS011;56046;47.270;11.368;2022-09-19T10:58:28;1.80;;;1.10;;
68989;SDS011;56046;47.270;11.368;2022-09-19T11:01:01;1.60;;;1.10;;
68989;SDS011;56046;47.270;11.368;2022-09-19T11:03:28;1.43;;;1.00;;
68989;SDS011;56046;47.270;11.368;2022-09-19T11:06:11;1.83;;;1.30;;
68989;SDS011;56046;47.270;11.368;2022-09-19T11:08:41;1.35;;;1.10;;
68989;SDS011;56046;47.270;11.368;2022-09-19T11:16:33;1.53;;;1.10;;
68989;SDS011;56046;47.270;11.368;2022-09-19T11:41:11;2.35;;;1.15;;
68989;SDS011;56046;47.270;11.368;2022-09-19T11:51:48;0.90;;;0.60;;
68989;SDS011;56046;47.270;11.368;2022-09-19T12:09:36;1.33;;;1.10;;
68989;SDS011;56046;47.270;11.368;2022-09-19T12:12:13;1.08;;;0.93;;
68989;SDS011;56046;47.270;11.368;2022-09-19T12:14:44;1.10;;;1.00;;
68989;SDS011;56046;47.270;11.368;2022-09-19T12:17:12;0.98;;;0.88;;
68989;SDS011;56046;47.270;11.368;2022-09-19T12:19:49;1.02;;;0.93;;
68989;SDS011;56046;47.270;11.368;2022-09-19T12:22:18;2.07;;;1.00;;
68989;SDS011;56046;47.270;11.368;2022-09-19T12:24:46;2.13;;;1.13;;
68989;SDS011;56046;47.270;11.368;2022-09-19T12:30:11;0.60;;;0.50;;
68989;SDS011;56046;47.270;11.368;2022-09-19T12:35:20;1.10;;;1.00;;
68989;SDS011;56046;47.270;11.368;2022-09-19T12:45:42;1.13;;;1.00;;
68989;SDS011;56046;47.270;11.368;2022-09-19T12:48:17;1.10;;;1.00;;
68989;SDS011;56046;47.270;11.368;2022-09-19T12:50:51;1.00;;;0.90;;
68989;SDS011;56046;47.270;11.368;2022-09-19T12:58:16;1.48;;;1.15;;
68989;SDS011;56046;47.270;11.368;2022-09-19T13:00:42;1.17;;;1.00;;
68989;SDS011;56046;47.270;11.368;2022-09-19T13:03:22;1.27;;;0.95;;
68989;SDS011;56046;47.270;11.368;2022-09-19T13:05:57;2.55;;;0.70;;
68989;SDS011;56046;47.270;11.368;2022-09-19T13:08:28;1.48;;;1.08;;
68989;SDS011;56046;47.270;11.368;2022-09-19T13:11:01;0.75;;;0.75;;
68989;SDS011;56046;47.270;11.368;2022-09-19T13:13:34;1.20;;;1.10;;
68989;SDS011;56046;47.270;11.368;2022-09-19T13:18:31;1.75;;;1.02;;
68989;SDS011;56046;47.270;11.368;2022-09-19T13:24:05;0.80;;;0.80;;
68989;SDS011;56046;47.270;11.368;2022-09-19T13:26:35;0.80;;;0.80;;
68989;SDS011;56046;47.270;11.368;2022-09-19T13:29:05;2.35;;;0.88;;
68989;SDS011;56046;47.270;11.368;2022-09-19T13:36:54;1.08;;;0.75;;
68989;SDS011;56046;47.270;11.368;2022-09-19T13:42:07;1.15;;;0.95;;
68989;SDS011;56046;47.270;11.368;2022-09-19T13:44:41;0.60;;;0.60;;
68989;SDS011;56046;47.270;11.368;2022-09-19T13:47:08;0.95;;;0.82;;
68989;SDS011;56046;47.270;11.368;2022-09-19T13:49:39;1.23;;;1.00;;
68989;SDS011;56046;47.270;11.368;2022-09-19T13:52:07;1.07;;;0.73;;
68989;SDS011;56046;47.270;11.368;2022-09-19T13:54:50;1.00;;;0.90;;
68989;SDS011;56046;47.270;11.368;2022-09-19T13:57:25;1.70;;;0.93;;
68989;SDS011;56046;47.270;11.368;2022-09-19T13:59:54;1.10;;;1.00;;
68989;SDS011;56046;47.270;11.368;2022-09-19T14:07:55;1.10;;;1.00;;
68989;SDS011;56046;47.270;11.368;2022-09-19T14:12:57;1.00;;;1.00;;
68989;SDS011;56046;47.270;11.368;2022-09-19T14:23:20;0.70;;;0.70;;
68989;SDS011;56046;47.270;11.368;2022-09-19T14:44:35;1.00;;;0.90;;
68989;SDS011;56046;47.270;11.368;2022-09-19T14:47:27;1.65;;;1.08;;
68989;SDS011;56046;47.270;11.368;2022-09-19T14:49:57;1.10;;;0.95;;
68989;SDS011;56046;47.270;11.368;2022-09-19T14:52:26;1.00;;;0.90;;
68989;SDS011;56046;47.270;11.368;2022-09-19T14:55:02;0.98;;;0.90;;
68989;SDS011;56046;47.270;11.368;2022-09-19T14:57:29;1.00;;;0.90;;
68989;SDS011;56046;47.270;11.368;2022-09-19T15:00:11;1.17;;;0.90;;
68989;SDS011;56046;47.270;11.368;2022-09-19T15:02:37;1.00;;;0.90;;
68989;SDS011;56046;47.270;11.368;2022-09-19T15:05:48;1.63;;;0.97;;
68989;SDS011;56046;47.270;11.368;2022-09-19T15:07:49;1.17;;;1.08;;
68989;SDS011;56046;47.270;11.368;2022-09-19T15:10:26;1.27;;;1.00;;
68989;SDS011;56046;47.270;11.368;2022-09-19T15:16:05;1.10;;;0.98;;
68989;SDS011;56046;47.270;11.368;2022-09-19T15:18:44;1.17;;;0.83;;
68989;SDS011;56046;47.270;11.368;2022-09-19T15:21:25;0.70;;;0.70;;
68989;SDS011;56046;47.270;11.368;2022-09-19T15:23:53;1.13;;;0.90;;
68989;SDS011;56046;47.270;11.368;2022-09-19T15:26:22;2.65;;;1.10;;
68989;SDS011;56046;47.270;11.368;2022-09-19T15:31:20;1.00;;;0.77;;
68989;SDS011;56046;47.270;11.368;2022-09-19T15:33:47;2.10;;;1.08;;
68989;SDS011;56046;47.270;11.368;2022-09-19T15:36:14;1.67;;;1.10;;
68989;SDS011;56046;47.270;11.368;2022-09-19T15:38:40;0.93;;;0.80;;
68989;SDS011;56046;47.270;11.368;2022-09-19T15:41:07;1.13;;;0.80;;
68989;SDS011;56046;47.270;11.368;2022-09-19T15:43:33;1.00;;;0.90;;
68989;SDS011;56046;47.270;11.368;2022-09-19T15:46:02;1.10;;;1.00;;
68989;SDS011;56046;47.270;11.368;2022-09-19T15:50:56;2.22;;;1.00;;
68989;SDS011;56046;47.270;11.368;2022-09-19T15:53:27;0.90;;;0.80;;
68989;SDS011;56046;47.270;11.368;2022-09-19T15:58:25;1.00;;;0.90;;
68989;SDS011;56046;47.270;11.368;2022-09-19T16:00:52;1.48;;;0.88;;
68989;SDS011;56046;47.270;11.368;2022-09-19T16:03:18;1.20;;;0.90;;
68989;SDS011;56046;47.270;11.368;2022-09-19T16:05:44;0.90;;;0.80;;
68989;SDS011;56046;47.270;11.368;2022-09-19T16:08:23;0.80;;;0.70;;
68989;SDS011;56046;47.270;11.368;2022-09-19T16:13:51;1.00;;;0.70;;
68989;SDS011;56046;47.270;11.368;2022-09-19T16:18:51;1.05;;;0.70;;
68989;SDS011;56046;47.270;11.368;2022-09-19T16:21:18;0.87;;;0.80;;
68989;SDS011;56046;47.270;11.368;2022-09-19T16:23:45;1.08;;;0.73;;
68989;SDS011;56046;47.270;11.368;2022-09-19T16:26:14;1.85;;;0.82;;
68989;SDS011;56046;47.270;11.368;2022-09-19T16:28:41;1.05;;;0.80;;
68989;SDS011;56046;47.270;11.368;2022-09-19T16:34:18;1.00;;;0.70;;
68989;SDS011;56046;47.270;11.368;2022-09-19T16:36:46;0.98;;;0.80;;
68989;SDS011;56046;47.270;11.368;2022-09-19T16:46:42;2.08;;;1.10;;
68989;SDS011;56046;47.270;11.368;2022-09-19T16:49:07;2.33;;;1.50;;
68989;SDS011;56046;47.270;11.368;2022-09-19T16:51:33;4.10;;;2.70;;
68989;SDS011;56046;47.270;11.368;2022-09-19T16:53:58;3.63;;;1.57;;
68989;SDS011;56046;47.270;11.368;2022-09-19T16:56:26;1.67;;;0.90;;
68989;SDS011;56046;47.270;11.368;2022-09-19T16:58:51;1.30;;;0.70;;
68989;SDS011;56046;47.270;11.368;2022-09-19T17:01:16;1.33;;;0.90;;
68989;SDS011;56046;47.270;11.368;2022-09-19T17:03:41;2.03;;;0.80;;
68989;SDS011;56046;47.270;11.368;2022-09-19T17:06:08;2.80;;;0.70;;
68989;SDS011;56046;47.270;11.368;2022-09-19T17:08:34;0.95;;;0.80;;
68989;SDS011;56046;47.270;11.368;2022-09-19T17:10:59;2.50;;;0.90;;
68989;SDS011;56046;47.270;11.368;2022-09-19T17:13:25;2.20;;;0.97;;
68989;SDS011;56046;47.270;11.368;2022-09-19T17:15:51;1.40;;;0.80;;
68989;SDS011;56046;47.270;11.368;2022-09-19T17:18:19;2.05;;;0.80;;
68989;SDS011;56046;47.270;11.368;2022-09-19T17:20:45;2.47;;;0.80;;
68989;SDS011;56046;47.270;11.368;2022-09-19T17:23:12;2.60;;;0.93;;
68989;SDS011;56046;47.270;11.368;2022-09-19T17:25:39;1.27;;;0.50;;
68989;SDS011;56046;47.270;11.368;2022-09-19T17:28:06;1.25;;;0.80;;
68989;SDS011;56046;47.270;11.368;2022-09-19T17:30:31;1.67;;;0.70;;
68989;SDS011;56046;47.270;11.368;2022-09-19T17:32:57;1.25;;;0.75;;
68989;SDS011;56046;47.270;11.368;2022-09-19T17:35:22;1.30;;;0.90;;
68989;SDS011;56046;47.270;11.368;2022-09-19T17:37:48;0.90;;;0.60;;
68989;SDS011;56046;47.270;11.368;2022-09-19T17:40:13;1.20;;;0.73;;
68989;SDS011;56046;47.270;11.368;2022-09-19T17:42:39;2.17;;;0.97;;
68989;SDS011;56046;47.270;11.368;2022-09-19T17:45:05;0.77;;;0.60;;
68989;SDS011;56046;47.270;11.368;2022-09-19T17:47:31;2.50;;;0.90;;
68989;SDS011;56046;47.270;11.368;2022-09-19T17:49:56;4.53;;;0.80;;
68989;SDS011;56046;47.270;11.368;2022-09-19T17:52:22;1.33;;;0.90;;
68989;SDS011;56046;47.270;11.368;2022-09-19T17:54:48;1.80;;;0.90;;
68989;SDS011;56046;47.270;11.368;2022-09-19T17:57:14;1.63;;;0.80;;
68989;SDS011;56046;47.270;11.368;2022-09-19T17:59:40;2.60;;;0.83;;
68989;SDS011;56046;47.270;11.368;2022-09-19T18:02:05;1.33;;;0.80;;